sensor_id;sensor_type;location;lat;lon;timestamp;temperature;humidity
14008;DHT22;61651;45.508;12.232;2023-01-28T00:02:21;8.10;99.30
14008;DHT22;61651;45.508;12.232;2023-01-28T00:05:23;8.10;99.20
14008;DHT22;61651;45.508;12.232;2023-01-28T00:08:26;7.90;99.20
14008;DHT22;61651;45.508;12.232;2023-01-28T00:11:28;8.00;99.40
14008;DHT22;61651;45.508;12.232;2023-01-28T00:14:30;8.00;99.10
14008;DHT22;61651;45.508;12.232;2023-01-28T00:17:33;8.00;99.10
14008;DHT22;61651;45.508;12.232;2023-01-28T00:20:36;7.90;99.20
14008;DHT22;61651;45.508;12.232;2023-01-28T00:23:41;7.90;98.90
14008;DHT22;61651;45.508;12.232;2023-01-28T00:26:43;8.00;99.10
14008;DHT22;61651;45.508;12.232;2023-01-28T00:29:45;8.00;99.20
14008;DHT22;61651;45.508;12.232;2023-01-28T00:32:48;8.10;99.20
14008;DHT22;61651;45.508;12.232;2023-01-28T00:35:57;8.10;98.90
14008;DHT22;61651;45.508;12.232;2023-01-28T00:39:01;8.10;99.00
14008;DHT22;61651;45.508;12.232;2023-01-28T00:42:03;8.10;99.00
14008;DHT22;61651;45.508;12.232;2023-01-28T00:45:06;8.20;99.10
14008;DHT22;61651;45.508;12.232;2023-01-28T00:48:08;8.00;98.80
14008;DHT22;61651;45.508;12.232;2023-01-28T00:51:12;8.10;99.00
14008;DHT22;61651;45.508;12.232;2023-01-28T00:54:16;8.10;99.10
14008;DHT22;61651;45.508;12.232;2023-01-28T00:57:18;8.10;99.20
14008;DHT22;61651;45.508;12.232;2023-01-28T01:00:20;8.10;99.00
14008;DHT22;61651;45.508;12.232;2023-01-28T01:03:25;8.10;99.10
14008;DHT22;61651;45.508;12.232;2023-01-28T01:06:28;8.00;99.00
14008;DHT22;61651;45.508;12.232;2023-01-28T01:09:31;8.00;99.00
14008;DHT22;61651;45.508;12.232;2023-01-28T01:12:34;7.90;99.00
14008;DHT22;61651;45.508;12.232;2023-01-28T01:15:36;7.90;99.10
14008;DHT22;61651;45.508;12.232;2023-01-28T01:18:38;7.80;99.00
14008;DHT22;61651;45.508;12.232;2023-01-28T01:21:41;7.70;98.90
14008;DHT22;61651;45.508;12.232;2023-01-28T01:24:46;7.60;99.00
14008;DHT22;61651;45.508;12.232;2023-01-28T01:27:49;7.60;99.10
14008;DHT22;61651;45.508;12.232;2023-01-28T01:30:58;7.60;99.10
14008;DHT22;61651;45.508;12.232;2023-01-28T01:34:00;7.50;99.10
14008;DHT22;61651;45.508;12.232;2023-01-28T01:37:02;7.50;99.10
14008;DHT22;61651;45.508;12.232;2023-01-28T01:40:10;7.40;99.20
14008;DHT22;61651;45.508;12.232;2023-01-28T01:43:16;7.40;99.30
14008;DHT22;61651;45.508;12.232;2023-01-28T01:46:22;7.40;99.20
14008;DHT22;61651;45.508;12.232;2023-01-28T01:49:26;7.30;99.30
14008;DHT22;61651;45.508;12.232;2023-01-28T01:52:32;7.20;99.30
14008;DHT22;61651;45.508;12.232;2023-01-28T01:55:39;7.10;99.50
14008;DHT22;61651;45.508;12.232;2023-01-28T01:58:43;7.10;99.50
14008;DHT22;61651;45.508;12.232;2023-01-28T02:01:47;7.10;99.50
14008;DHT22;61651;45.508;12.232;2023-01-28T02:04:49;7.10;99.50
14008;DHT22;61651;45.508;12.232;2023-01-28T02:07:53;7.00;99.50
14008;DHT22;61651;45.508;12.232;2023-01-28T02:11:18;7.00;99.70
14008;DHT22;61651;45.508;12.232;2023-01-28T02:14:21;7.00;99.60
14008;DHT22;61651;45.508;12.232;2023-01-28T02:17:24;6.90;99.60
14008;DHT22;61651;45.508;12.232;2023-01-28T02:20:40;6.90;99.80
14008;DHT22;61651;45.508;12.232;2023-01-28T02:23:58;6.90;99.80
14008;DHT22;61651;45.508;12.232;2023-01-28T02:27:16;6.80;99.90
14008;DHT22;61651;45.508;12.232;2023-01-28T02:30:26;6.80;99.90
14008;DHT22;61651;45.508;12.232;2023-01-28T02:33:34;6.70;99.90
14008;DHT22;61651;45.508;12.232;2023-01-28T02:36:44;6.70;99.90
14008;DHT22;61651;45.508;12.232;2023-01-28T02:39:50;6.70;99.90
14008;DHT22;61651;45.508;12.232;2023-01-28T02:42:52;6.70;99.90
14008;DHT22;61651;45.508;12.232;2023-01-28T02:45:56;6.60;99.90
14008;DHT22;61651;45.508;12.232;2023-01-28T02:49:34;6.50;99.90
14008;DHT22;61651;45.508;12.232;2023-01-28T02:52:47;6.50;99.90
14008;DHT22;61651;45.508;12.232;2023-01-28T02:56:16;6.50;99.90
14008;DHT22;61651;45.508;12.232;2023-01-28T02:59:23;6.50;99.90
14008;DHT22;61651;45.508;12.232;2023-01-28T03:02:41;6.40;99.90
14008;DHT22;61651;45.508;12.232;2023-01-28T03:05:50;6.30;99.90
14008;DHT22;61651;45.508;12.232;2023-01-28T03:09:08;6.30;99.90
14008;DHT22;61651;45.508;12.232;2023-01-28T03:12:26;6.30;99.90
14008;DHT22;61651;45.508;12.232;2023-01-28T03:15:47;6.30;99.90
14008;DHT22;61651;45.508;12.232;2023-01-28T03:19:10;6.30;99.90
14008;DHT22;61651;45.508;12.232;2023-01-28T03:22:33;6.40;99.90
14008;DHT22;61651;45.508;12.232;2023-01-28T03:25:57;6.40;99.90
14008;DHT22;61651;45.508;12.232;2023-01-28T03:29:19;6.40;99.90
14008;DHT22;61651;45.508;12.232;2023-01-28T03:32:40;6.30;99.90
14008;DHT22;61651;45.508;12.232;2023-01-28T03:36:02;6.30;99.90
14008;DHT22;61651;45.508;12.232;2023-01-28T03:39:24;6.40;99.90
14008;DHT22;61651;45.508;12.232;2023-01-28T03:42:26;6.30;99.90
14008;DHT22;61651;45.508;12.232;2023-01-28T03:45:28;6.40;99.90
14008;DHT22;61651;45.508;12.232;2023-01-28T03:48:30;6.40;99.90
14008;DHT22;61651;45.508;12.232;2023-01-28T03:51:33;6.50;99.90
14008;DHT22;61651;45.508;12.232;2023-01-28T03:54:35;6.40;99.90
14008;DHT22;61651;45.508;12.232;2023-01-28T03:57:38;6.40;99.90
14008;DHT22;61651;45.508;12.232;2023-01-28T04:00:40;6.40;99.90
14008;DHT22;61651;45.508;12.232;2023-01-28T04:03:43;6.40;99.90
14008;DHT22;61651;45.508;12.232;2023-01-28T04:06:46;6.50;99.90
14008;DHT22;61651;45.508;12.232;2023-01-28T04:09:48;6.50;99.90
14008;DHT22;61651;45.508;12.232;2023-01-28T04:12:50;6.50;99.90
14008;DHT22;61651;45.508;12.232;2023-01-28T04:15:53;6.50;99.90
14008;DHT22;61651;45.508;12.232;2023-01-28T04:18:55;6.50;99.90
14008;DHT22;61651;45.508;12.232;2023-01-28T04:22:00;6.50;99.90
14008;DHT22;61651;45.508;12.232;2023-01-28T04:25:02;6.40;99.90
14008;DHT22;61651;45.508;12.232;2023-01-28T04:28:04;6.40;99.90
14008;DHT22;61651;45.508;12.232;2023-01-28T04:31:06;6.40;99.90
14008;DHT22;61651;45.508;12.232;2023-01-28T04:34:08;6.40;99.90
14008;DHT22;61651;45.508;12.232;2023-01-28T04:37:12;6.40;99.90
14008;DHT22;61651;45.508;12.232;2023-01-28T04:40:14;6.40;99.90
14008;DHT22;61651;45.508;12.232;2023-01-28T04:43:16;6.40;99.90
14008;DHT22;61651;45.508;12.232;2023-01-28T04:46:19;6.30;99.90
14008;DHT22;61651;45.508;12.232;2023-01-28T04:49:21;6.20;99.90
14008;DHT22;61651;45.508;12.232;2023-01-28T04:52:25;6.20;99.90
14008;DHT22;61651;45.508;12.232;2023-01-28T04:55:27;6.20;99.90
14008;DHT22;61651;45.508;12.232;2023-01-28T04:58:29;6.10;99.90
14008;DHT22;61651;45.508;12.232;2023-01-28T05:01:31;6.10;99.90
14008;DHT22;61651;45.508;12.232;2023-01-28T05:04:33;6.10;99.90
14008;DHT22;61651;45.508;12.232;2023-01-28T05:07:36;6.10;99.90
14008;DHT22;61651;45.508;12.232;2023-01-28T05:10:38;6.00;99.90
14008;DHT22;61651;45.508;12.232;2023-01-28T05:13:40;6.00;99.90
14008;DHT22;61651;45.508;12.232;2023-01-28T05:16:42;6.00;99.90
14008;DHT22;61651;45.508;12.232;2023-01-28T05:19:44;6.00;99.90
14008;DHT22;61651;45.508;12.232;2023-01-28T05:22:48;5.90;99.90
14008;DHT22;61651;45.508;12.232;2023-01-28T05:25:50;5.90;99.90
14008;DHT22;61651;45.508;12.232;2023-01-28T05:28:52;5.90;99.90
14008;DHT22;61651;45.508;12.232;2023-01-28T05:31:54;5.90;99.90
14008;DHT22;61651;45.508;12.232;2023-01-28T05:34:56;5.80;99.90
14008;DHT22;61651;45.508;12.232;2023-01-28T05:37:59;5.80;99.90
14008;DHT22;61651;45.508;12.232;2023-01-28T05:41:01;5.80;99.90
14008;DHT22;61651;45.508;12.232;2023-01-28T05:44:04;5.70;99.90
14008;DHT22;61651;45.508;12.232;2023-01-28T05:47:06;5.70;99.90
14008;DHT22;61651;45.508;12.232;2023-01-28T05:50:09;5.70;99.90
14008;DHT22;61651;45.508;12.232;2023-01-28T05:53:15;5.70;99.90
14008;DHT22;61651;45.508;12.232;2023-01-28T05:56:17;5.70;99.90
14008;DHT22;61651;45.508;12.232;2023-01-28T05:59:19;5.70;99.90
14008;DHT22;61651;45.508;12.232;2023-01-28T06:02:21;5.60;99.90
14008;DHT22;61651;45.508;12.232;2023-01-28T06:05:23;5.60;99.90
14008;DHT22;61651;45.508;12.232;2023-01-28T06:08:26;5.60;99.90
14008;DHT22;61651;45.508;12.232;2023-01-28T06:11:28;5.60;99.90
14008;DHT22;61651;45.508;12.232;2023-01-28T06:14:30;5.60;99.90
14008;DHT22;61651;45.508;12.232;2023-01-28T06:17:32;5.60;99.90
14008;DHT22;61651;45.508;12.232;2023-01-28T06:20:34;5.50;99.90
14008;DHT22;61651;45.508;12.232;2023-01-28T06:23:37;5.50;99.90
14008;DHT22;61651;45.508;12.232;2023-01-28T06:26:39;5.60;99.90
14008;DHT22;61651;45.508;12.232;2023-01-28T06:29:41;5.50;99.90
14008;DHT22;61651;45.508;12.232;2023-01-28T06:32:43;5.50;99.90
14008;DHT22;61651;45.508;12.232;2023-01-28T06:35:45;5.50;99.90
14008;DHT22;61651;45.508;12.232;2023-01-28T06:38:48;5.50;99.90
14008;DHT22;61651;45.508;12.232;2023-01-28T06:41:50;5.50;99.90
14008;DHT22;61651;45.508;12.232;2023-01-28T06:44:54;5.50;99.90
14008;DHT22;61651;45.508;12.232;2023-01-28T06:47:56;5.50;99.90
14008;DHT22;61651;45.508;12.232;2023-01-28T06:50:58;5.50;99.90
14008;DHT22;61651;45.508;12.232;2023-01-28T06:54:01;5.50;99.90
14008;DHT22;61651;45.508;12.232;2023-01-28T06:57:03;5.50;99.90
14008;DHT22;61651;45.508;12.232;2023-01-28T07:00:06;5.50;99.90
14008;DHT22;61651;45.508;12.232;2023-01-28T07:03:10;5.60;99.90
14008;DHT22;61651;45.508;12.232;2023-01-28T07:06:11;5.50;99.90
14008;DHT22;61651;45.508;12.232;2023-01-28T07:09:15;5.50;99.90
14008;DHT22;61651;45.508;12.232;2023-01-28T07:12:17;5.60;99.90
14008;DHT22;61651;45.508;12.232;2023-01-28T07:15:19;5.60;99.90
14008;DHT22;61651;45.508;12.232;2023-01-28T07:18:21;5.50;99.90
14008;DHT22;61651;45.508;12.232;2023-01-28T07:21:23;5.50;99.90
14008;DHT22;61651;45.508;12.232;2023-01-28T07:24:26;5.50;99.90
14008;DHT22;61651;45.508;12.232;2023-01-28T07:27:28;5.50;99.90
14008;DHT22;61651;45.508;12.232;2023-01-28T07:30:30;5.60;99.90
14008;DHT22;61651;45.508;12.232;2023-01-28T07:33:32;5.50;99.90
14008;DHT22;61651;45.508;12.232;2023-01-28T07:36:34;5.60;99.90
14008;DHT22;61651;45.508;12.232;2023-01-28T07:39:38;5.70;99.90
14008;DHT22;61651;45.508;12.232;2023-01-28T07:42:40;5.70;99.90
14008;DHT22;61651;45.508;12.232;2023-01-28T07:45:42;5.70;99.90
14008;DHT22;61651;45.508;12.232;2023-01-28T07:48:44;5.70;99.90
14008;DHT22;61651;45.508;12.232;2023-01-28T07:51:46;5.60;99.90
14008;DHT22;61651;45.508;12.232;2023-01-28T07:54:51;5.70;99.90
14008;DHT22;61651;45.508;12.232;2023-01-28T07:57:55;5.70;99.90
14008;DHT22;61651;45.508;12.232;2023-01-28T08:00:57;5.80;99.90
14008;DHT22;61651;45.508;12.232;2023-01-28T08:03:59;5.80;99.90
14008;DHT22;61651;45.508;12.232;2023-01-28T08:07:02;5.90;99.90
14008;DHT22;61651;45.508;12.232;2023-01-28T08:10:07;5.90;99.90
14008;DHT22;61651;45.508;12.232;2023-01-28T08:13:11;5.90;99.90
14008;DHT22;61651;45.508;12.232;2023-01-28T08:16:13;5.80;99.90
14008;DHT22;61651;45.508;12.232;2023-01-28T08:19:15;5.80;99.90
14008;DHT22;61651;45.508;12.232;2023-01-28T08:22:18;5.90;99.90
14008;DHT22;61651;45.508;12.232;2023-01-28T08:25:21;5.80;99.90
14008;DHT22;61651;45.508;12.232;2023-01-28T08:28:23;5.90;99.90
14008;DHT22;61651;45.508;12.232;2023-01-28T08:31:26;5.80;99.90
14008;DHT22;61651;45.508;12.232;2023-01-28T08:34:28;5.90;99.90
14008;DHT22;61651;45.508;12.232;2023-01-28T08:37:30;6.10;99.90
14008;DHT22;61651;45.508;12.232;2023-01-28T08:40:34;6.10;99.90
14008;DHT22;61651;45.508;12.232;2023-01-28T08:43:36;6.20;99.90
14008;DHT22;61651;45.508;12.232;2023-01-28T08:46:38;6.20;99.90
14008;DHT22;61651;45.508;12.232;2023-01-28T08:49:40;6.30;99.90
14008;DHT22;61651;45.508;12.232;2023-01-28T08:52:42;6.40;99.90
14008;DHT22;61651;45.508;12.232;2023-01-28T08:55:45;6.60;99.90
14008;DHT22;61651;45.508;12.232;2023-01-28T08:58:47;6.70;99.90
14008;DHT22;61651;45.508;12.232;2023-01-28T09:01:50;6.80;99.90
14008;DHT22;61651;45.508;12.232;2023-01-28T09:04:52;7.00;99.90
14008;DHT22;61651;45.508;12.232;2023-01-28T09:07:54;7.20;99.90
14008;DHT22;61651;45.508;12.232;2023-01-28T09:10:57;7.20;99.90
14008;DHT22;61651;45.508;12.232;2023-01-28T09:13:59;7.30;99.90
14008;DHT22;61651;45.508;12.232;2023-01-28T09:17:03;7.50;99.90
14008;DHT22;61651;45.508;12.232;2023-01-28T09:20:06;7.60;99.90
14008;DHT22;61651;45.508;12.232;2023-01-28T09:23:08;7.80;99.90
14008;DHT22;61651;45.508;12.232;2023-01-28T09:26:12;7.70;99.90
14008;DHT22;61651;45.508;12.232;2023-01-28T09:29:14;7.80;99.90
14008;DHT22;61651;45.508;12.232;2023-01-28T09:32:16;7.90;99.90
14008;DHT22;61651;45.508;12.232;2023-01-28T09:35:18;8.10;99.90
14008;DHT22;61651;45.508;12.232;2023-01-28T09:38:20;8.10;99.90
14008;DHT22;61651;45.508;12.232;2023-01-28T09:41:28;8.10;99.90
14008;DHT22;61651;45.508;12.232;2023-01-28T09:44:41;8.20;99.90
14008;DHT22;61651;45.508;12.232;2023-01-28T09:47:51;8.30;99.90
14008;DHT22;61651;45.508;12.232;2023-01-28T09:50:54;8.30;99.90
14008;DHT22;61651;45.508;12.232;2023-01-28T09:53:59;8.40;99.90
14008;DHT22;61651;45.508;12.232;2023-01-28T09:57:09;8.50;99.90
14008;DHT22;61651;45.508;12.232;2023-01-28T10:00:13;8.60;99.90
14008;DHT22;61651;45.508;12.232;2023-01-28T10:06:51;8.60;99.90
14008;DHT22;61651;45.508;12.232;2023-01-28T10:09:59;8.70;99.90
14008;DHT22;61651;45.508;12.232;2023-01-28T10:13:26;8.80;99.90
14008;DHT22;61651;45.508;12.232;2023-01-28T10:16:37;8.80;99.80
14008;DHT22;61651;45.508;12.232;2023-01-28T10:19:43;8.90;99.90
14008;DHT22;61651;45.508;12.232;2023-01-28T10:22:49;9.00;99.90
14008;DHT22;61651;45.508;12.232;2023-01-28T10:25:55;9.20;99.90
14008;DHT22;61651;45.508;12.232;2023-01-28T10:29:03;9.20;98.90
14008;DHT22;61651;45.508;12.232;2023-01-28T10:32:16;9.30;99.50
14008;DHT22;61651;45.508;12.232;2023-01-28T10:35:22;9.40;99.50
14008;DHT22;61651;45.508;12.232;2023-01-28T10:38:26;9.30;97.90
14008;DHT22;61651;45.508;12.232;2023-01-28T10:41:28;9.40;97.70
14008;DHT22;61651;45.508;12.232;2023-01-28T10:44:35;9.30;98.20
14008;DHT22;61651;45.508;12.232;2023-01-28T10:47:42;9.30;98.20
14008;DHT22;61651;45.508;12.232;2023-01-28T10:50:50;9.20;96.80
14008;DHT22;61651;45.508;12.232;2023-01-28T10:53:52;9.20;97.50
14008;DHT22;61651;45.508;12.232;2023-01-28T10:56:56;9.20;97.90
14008;DHT22;61651;45.508;12.232;2023-01-28T11:00:11;9.30;96.90
14008;DHT22;61651;45.508;12.232;2023-01-28T11:03:17;9.00;97.00
14008;DHT22;61651;45.508;12.232;2023-01-28T11:06:24;9.20;96.80
14008;DHT22;61651;45.508;12.232;2023-01-28T11:09:32;9.20;96.30
14008;DHT22;61651;45.508;12.232;2023-01-28T11:12:34;9.30;97.40
14008;DHT22;61651;45.508;12.232;2023-01-28T11:15:44;9.10;96.80
14008;DHT22;61651;45.508;12.232;2023-01-28T11:18:49;9.40;98.10
14008;DHT22;61651;45.508;12.232;2023-01-28T11:21:54;9.60;97.40
14008;DHT22;61651;45.508;12.232;2023-01-28T11:24:56;9.70;96.50
14008;DHT22;61651;45.508;12.232;2023-01-28T11:28:00;9.90;97.40
14008;DHT22;61651;45.508;12.232;2023-01-28T11:31:04;10.20;98.70
14008;DHT22;61651;45.508;12.232;2023-01-28T11:34:06;10.40;97.00
14008;DHT22;61651;45.508;12.232;2023-01-28T11:37:12;10.60;97.00
14008;DHT22;61651;45.508;12.232;2023-01-28T11:40:17;10.60;95.90
14008;DHT22;61651;45.508;12.232;2023-01-28T11:43:22;10.10;95.30
14008;DHT22;61651;45.508;12.232;2023-01-28T11:46:46;10.10;96.30
14008;DHT22;61651;45.508;12.232;2023-01-28T11:50:11;10.30;97.20
14008;DHT22;61651;45.508;12.232;2023-01-28T11:53:37;10.50;96.00
14008;DHT22;61651;45.508;12.232;2023-01-28T11:57:01;10.50;95.90
14008;DHT22;61651;45.508;12.232;2023-01-28T12:00:32;10.60;96.40
14008;DHT22;61651;45.508;12.232;2023-01-28T12:03:54;10.70;96.70
14008;DHT22;61651;45.508;12.232;2023-01-28T12:07:21;11.00;97.80
14008;DHT22;61651;45.508;12.232;2023-01-28T12:10:32;11.20;97.10
14008;DHT22;61651;45.508;12.232;2023-01-28T12:13:47;11.20;95.70
14008;DHT22;61651;45.508;12.232;2023-01-28T12:17:00;11.20;97.10
14008;DHT22;61651;45.508;12.232;2023-01-28T12:20:18;11.40;95.70
14008;DHT22;61651;45.508;12.232;2023-01-28T12:23:31;11.60;95.80
14008;DHT22;61651;45.508;12.232;2023-01-28T12:26:44;11.70;94.50
14008;DHT22;61651;45.508;12.232;2023-01-28T12:29:55;11.80;95.90
14008;DHT22;61651;45.508;12.232;2023-01-28T12:33:26;12.00;95.50
14008;DHT22;61651;45.508;12.232;2023-01-28T12:36:42;12.10;97.70
14008;DHT22;61651;45.508;12.232;2023-01-28T12:39:58;12.20;97.00
14008;DHT22;61651;45.508;12.232;2023-01-28T12:43:08;12.40;98.10
14008;DHT22;61651;45.508;12.232;2023-01-28T12:46:22;12.60;97.40
14008;DHT22;61651;45.508;12.232;2023-01-28T12:49:29;12.80;99.00
14008;DHT22;61651;45.508;12.232;2023-01-28T12:52:38;12.90;94.50
14008;DHT22;61651;45.508;12.232;2023-01-28T12:55:44;12.80;94.80
14008;DHT22;61651;45.508;12.232;2023-01-28T12:58:52;12.70;93.70
14008;DHT22;61651;45.508;12.232;2023-01-28T13:02:03;12.80;94.30
14008;DHT22;61651;45.508;12.232;2023-01-28T13:05:09;12.80;94.10
14008;DHT22;61651;45.508;12.232;2023-01-28T13:08:18;12.90;94.20
14008;DHT22;61651;45.508;12.232;2023-01-28T13:11:23;13.10;95.40
14008;DHT22;61651;45.508;12.232;2023-01-28T13:14:29;13.40;95.20
14008;DHT22;61651;45.508;12.232;2023-01-28T13:17:32;13.70;95.20
14008;DHT22;61651;45.508;12.232;2023-01-28T13:20:45;14.00;94.70
14008;DHT22;61651;45.508;12.232;2023-01-28T13:23:49;14.20;94.20
14008;DHT22;61651;45.508;12.232;2023-01-28T13:26:54;14.40;94.00
14008;DHT22;61651;45.508;12.232;2023-01-28T13:30:02;14.50;93.20
14008;DHT22;61651;45.508;12.232;2023-01-28T13:33:24;14.70;92.70
14008;DHT22;61651;45.508;12.232;2023-01-28T13:36:29;14.80;92.60
14008;DHT22;61651;45.508;12.232;2023-01-28T13:39:35;14.90;92.90
14008;DHT22;61651;45.508;12.232;2023-01-28T13:42:38;15.00;93.10
14008;DHT22;61651;45.508;12.232;2023-01-28T13:45:40;15.10;92.20
14008;DHT22;61651;45.508;12.232;2023-01-28T13:48:47;15.20;91.80
14008;DHT22;61651;45.508;12.232;2023-01-28T13:51:57;15.30;91.80
14008;DHT22;61651;45.508;12.232;2023-01-28T13:55:05;15.70;91.30
14008;DHT22;61651;45.508;12.232;2023-01-28T14:02:09;16.30;91.20
14008;DHT22;61651;45.508;12.232;2023-01-28T14:09:01;16.70;90.20
14008;DHT22;61651;45.508;12.232;2023-01-28T14:12:41;16.80;89.00
14008;DHT22;61651;45.508;12.232;2023-01-28T14:15:56;16.90;89.20
14008;DHT22;61651;45.508;12.232;2023-01-28T14:18:59;16.90;87.80
14008;DHT22;61651;45.508;12.232;2023-01-28T14:22:06;17.00;88.30
14008;DHT22;61651;45.508;12.232;2023-01-28T14:25:11;17.00;88.10
14008;DHT22;61651;45.508;12.232;2023-01-28T14:28:21;17.00;87.70
14008;DHT22;61651;45.508;12.232;2023-01-28T14:31:30;17.10;87.80
14008;DHT22;61651;45.508;12.232;2023-01-28T14:34:34;17.10;87.10
14008;DHT22;61651;45.508;12.232;2023-01-28T14:37:37;17.10;87.40
14008;DHT22;61651;45.508;12.232;2023-01-28T14:40:39;17.20;87.60
14008;DHT22;61651;45.508;12.232;2023-01-28T14:43:43;17.10;86.70
14008;DHT22;61651;45.508;12.232;2023-01-28T14:46:51;17.10;87.80
14008;DHT22;61651;45.508;12.232;2023-01-28T14:50:09;17.10;87.50
14008;DHT22;61651;45.508;12.232;2023-01-28T14:56:56;17.10;87.20
14008;DHT22;61651;45.508;12.232;2023-01-28T15:00:02;17.00;87.90
14008;DHT22;61651;45.508;12.232;2023-01-28T15:03:10;16.90;87.70
14008;DHT22;61651;45.508;12.232;2023-01-28T15:06:19;16.90;88.50
14008;DHT22;61651;45.508;12.232;2023-01-28T15:09:23;16.80;88.50
14008;DHT22;61651;45.508;12.232;2023-01-28T15:12:25;16.60;88.20
14008;DHT22;61651;45.508;12.232;2023-01-28T15:15:32;16.50;87.80
14008;DHT22;61651;45.508;12.232;2023-01-28T15:18:39;16.30;88.80
14008;DHT22;61651;45.508;12.232;2023-01-28T15:21:43;16.10;89.20
14008;DHT22;61651;45.508;12.232;2023-01-28T15:24:45;16.00;89.00
14008;DHT22;61651;45.508;12.232;2023-01-28T15:27:49;15.90;89.30
14008;DHT22;61651;45.508;12.232;2023-01-28T15:30:53;15.80;89.90
14008;DHT22;61651;45.508;12.232;2023-01-28T15:33:56;15.70;90.00
14008;DHT22;61651;45.508;12.232;2023-01-28T15:36:59;15.60;90.60
14008;DHT22;61651;45.508;12.232;2023-01-28T15:40:03;15.50;90.40
14008;DHT22;61651;45.508;12.232;2023-01-28T15:43:16;15.40;90.40
14008;DHT22;61651;45.508;12.232;2023-01-28T15:46:20;15.30;90.80
14008;DHT22;61651;45.508;12.232;2023-01-28T15:49:27;15.10;90.90
14008;DHT22;61651;45.508;12.232;2023-01-28T15:52:32;14.80;90.90
14008;DHT22;61651;45.508;12.232;2023-01-28T15:55:36;14.60;91.10
14008;DHT22;61651;45.508;12.232;2023-01-28T15:58:38;14.30;91.40
14008;DHT22;61651;45.508;12.232;2023-01-28T16:01:43;14.10;91.80
14008;DHT22;61651;45.508;12.232;2023-01-28T16:04:55;13.80;92.00
14008;DHT22;61651;45.508;12.232;2023-01-28T16:08:01;13.50;92.50
14008;DHT22;61651;45.508;12.232;2023-01-28T16:11:04;13.30;93.40
14008;DHT22;61651;45.508;12.232;2023-01-28T16:14:20;13.10;93.50
14008;DHT22;61651;45.508;12.232;2023-01-28T16:17:27;12.90;93.40
14008;DHT22;61651;45.508;12.232;2023-01-28T16:20:30;12.60;93.60
14008;DHT22;61651;45.508;12.232;2023-01-28T16:23:33;12.50;93.90
14008;DHT22;61651;45.508;12.232;2023-01-28T16:26:35;12.30;93.90
14008;DHT22;61651;45.508;12.232;2023-01-28T16:29:37;12.20;94.20
14008;DHT22;61651;45.508;12.232;2023-01-28T16:32:41;12.10;94.60
14008;DHT22;61651;45.508;12.232;2023-01-28T16:35:43;11.90;94.50
14008;DHT22;61651;45.508;12.232;2023-01-28T16:38:45;11.80;94.60
14008;DHT22;61651;45.508;12.232;2023-01-28T16:41:47;11.70;94.90
14008;DHT22;61651;45.508;12.232;2023-01-28T16:44:49;11.50;95.10
14008;DHT22;61651;45.508;12.232;2023-01-28T16:47:52;11.50;95.30
14008;DHT22;61651;45.508;12.232;2023-01-28T16:50:54;11.40;95.40
14008;DHT22;61651;45.508;12.232;2023-01-28T16:53:57;11.30;95.40
14008;DHT22;61651;45.508;12.232;2023-01-28T16:56:59;11.20;95.30
14008;DHT22;61651;45.508;12.232;2023-01-28T17:00:02;11.10;95.40
14008;DHT22;61651;45.508;12.232;2023-01-28T17:03:05;10.90;95.50
14008;DHT22;61651;45.508;12.232;2023-01-28T17:06:08;10.80;95.50
14008;DHT22;61651;45.508;12.232;2023-01-28T17:09:13;10.80;95.70
14008;DHT22;61651;45.508;12.232;2023-01-28T17:12:15;10.70;95.80
14008;DHT22;61651;45.508;12.232;2023-01-28T17:15:17;10.60;95.80
14008;DHT22;61651;45.508;12.232;2023-01-28T17:18:20;10.50;96.00
14008;DHT22;61651;45.508;12.232;2023-01-28T17:21:22;10.40;96.20
14008;DHT22;61651;45.508;12.232;2023-01-28T17:24:24;10.30;96.20
14008;DHT22;61651;45.508;12.232;2023-01-28T17:27:26;10.30;96.30
14008;DHT22;61651;45.508;12.232;2023-01-28T17:30:28;10.20;96.50
14008;DHT22;61651;45.508;12.232;2023-01-28T17:33:31;10.10;96.50
14008;DHT22;61651;45.508;12.232;2023-01-28T17:36:33;10.10;96.60
14008;DHT22;61651;45.508;12.232;2023-01-28T17:39:35;10.00;96.70
14008;DHT22;61651;45.508;12.232;2023-01-28T17:42:37;9.90;96.90
14008;DHT22;61651;45.508;12.232;2023-01-28T17:45:39;9.90;97.10
14008;DHT22;61651;45.508;12.232;2023-01-28T17:48:43;9.90;97.20
14008;DHT22;61651;45.508;12.232;2023-01-28T17:51:45;9.80;97.20
14008;DHT22;61651;45.508;12.232;2023-01-28T17:54:48;9.80;97.20
14008;DHT22;61651;45.508;12.232;2023-01-28T17:57:50;9.70;97.40
14008;DHT22;61651;45.508;12.232;2023-01-28T18:00:52;9.70;97.40
14008;DHT22;61651;45.508;12.232;2023-01-28T18:03:56;9.60;97.50
14008;DHT22;61651;45.508;12.232;2023-01-28T18:06:59;9.50;97.60
14008;DHT22;61651;45.508;12.232;2023-01-28T18:10:01;9.40;97.60
14008;DHT22;61651;45.508;12.232;2023-01-28T18:13:03;9.40;97.80
14008;DHT22;61651;45.508;12.232;2023-01-28T18:16:06;9.30;97.90
14008;DHT22;61651;45.508;12.232;2023-01-28T18:19:09;9.30;98.00
14008;DHT22;61651;45.508;12.232;2023-01-28T18:22:11;9.20;98.00
14008;DHT22;61651;45.508;12.232;2023-01-28T18:25:14;9.20;98.00
14008;DHT22;61651;45.508;12.232;2023-01-28T18:28:17;9.20;98.20
14008;DHT22;61651;45.508;12.232;2023-01-28T18:31:19;9.10;98.20
14008;DHT22;61651;45.508;12.232;2023-01-28T18:34:24;9.10;98.30
14008;DHT22;61651;45.508;12.232;2023-01-28T18:37:26;9.00;98.40
14008;DHT22;61651;45.508;12.232;2023-01-28T18:40:28;9.00;98.60
14008;DHT22;61651;45.508;12.232;2023-01-28T18:43:30;9.00;98.60
14008;DHT22;61651;45.508;12.232;2023-01-28T18:46:35;9.00;98.90
14008;DHT22;61651;45.508;12.232;2023-01-28T18:49:39;8.90;98.90
14008;DHT22;61651;45.508;12.232;2023-01-28T18:52:41;8.90;98.90
14008;DHT22;61651;45.508;12.232;2023-01-28T18:55:44;8.90;99.00
14008;DHT22;61651;45.508;12.232;2023-01-28T18:58:45;8.80;99.30
14008;DHT22;61651;45.508;12.232;2023-01-28T19:01:48;8.80;99.50
14008;DHT22;61651;45.508;12.232;2023-01-28T19:04:51;8.50;99.60
14008;DHT22;61651;45.508;12.232;2023-01-28T19:07:53;8.40;99.90
14008;DHT22;61651;45.508;12.232;2023-01-28T19:10:55;8.40;99.90
14008;DHT22;61651;45.508;12.232;2023-01-28T19:13:57;8.30;99.90
14008;DHT22;61651;45.508;12.232;2023-01-28T19:16:59;8.30;99.90
14008;DHT22;61651;45.508;12.232;2023-01-28T19:20:03;8.20;99.90
14008;DHT22;61651;45.508;12.232;2023-01-28T19:23:06;8.20;99.90
14008;DHT22;61651;45.508;12.232;2023-01-28T19:26:08;8.30;99.90
14008;DHT22;61651;45.508;12.232;2023-01-28T19:29:11;8.40;99.90
14008;DHT22;61651;45.508;12.232;2023-01-28T19:32:13;8.40;99.90
14008;DHT22;61651;45.508;12.232;2023-01-28T19:35:16;8.30;99.90
14008;DHT22;61651;45.508;12.232;2023-01-28T19:38:18;8.30;99.90
14008;DHT22;61651;45.508;12.232;2023-01-28T19:41:20;8.30;99.90
14008;DHT22;61651;45.508;12.232;2023-01-28T19:44:22;8.30;99.90